Time;durP1;ratioP1;P1;durP2;ratioP2;P2;SDS_P1;SDS_P2;PMS_P1;PMS_P2;Temp;Humidity;BMP_temperature;BMP_pressure;BME280_temperature;BME280_humidity;BME280_pressure;Samples;Min_cycle;Max_cycle;Signal;HPM_P1;HPM_P2
2023/01/15 00:01:22;;;;;;;4.07;3.22;;;17.60;52.80;;;;;;5068845;28;45323;-78
2023/01/15 00:03:49;;;;;;;3.88;3.30;;;17.60;52.80;;;;;;5069274;28;45215;-77
2023/01/15 00:06:16;;;;;;;4.18;3.25;;;17.60;52.80;;;;;;5069415;28;45246;-78
2023/01/15 00:08:43;;;;;;;3.88;3.42;;;17.60;52.80;;;;;;5069053;28;46722;-78
2023/01/15 00:11:11;;;;;;;3.92;3.50;;;17.60;52.80;;;;;;5068768;28;45339;-78
2023/01/15 00:13:38;;;;;;;3.92;3.28;;;17.60;52.80;;;;;;5069105;28;45181;-79
2023/01/15 00:16:05;;;;;;;4.45;3.40;;;17.60;52.80;;;;;;5069287;28;45384;-78
2023/01/15 00:18:32;;;;;;;4.00;3.40;;;17.60;52.90;;;;;;5068651;28;47592;-77
2023/01/15 00:21:00;;;;;;;5.47;3.40;;;17.60;52.90;;;;;;5068858;28;45342;-78
2023/01/15 00:28:58;;;;;;;4.53;3.45;;;17.60;52.90;;;;;;5066998;28;45207;-79
2023/01/15 00:31:25;;;;;;;4.60;3.33;;;17.60;52.90;;;;;;5068757;28;45204;-78
2023/01/15 00:33:52;;;;;;;3.22;2.83;;;17.60;52.90;;;;;;5068973;28;45326;-78
2023/01/15 00:36:19;;;;;;;3.83;3.35;;;17.60;52.90;;;;;;5068957;28;45339;-78
2023/01/15 00:38:45;;;;;;;3.85;3.20;;;17.70;53.00;;;;;;5068463;28;46396;-78
2023/01/15 00:41:14;;;;;;;3.70;3.30;;;17.60;53.00;;;;;;5069023;28;45127;-78
2023/01/15 00:43:41;;;;;;;3.78;2.90;;;17.60;53.00;;;;;;5068815;28;45287;-78
2023/01/15 00:46:08;;;;;;;4.32;3.25;;;17.60;53.00;;;;;;5066966;28;45333;-79
2023/01/15 00:48:35;;;;;;;3.40;3.10;;;17.60;53.00;;;;;;5068351;28;46589;-79
2023/01/15 00:51:01;;;;;;;3.47;3.08;;;17.60;53.00;;;;;;5068551;28;45225;-80
2023/01/15 00:53:29;;;;;;;4.35;2.85;;;17.60;53.00;;;;;;5068463;28;45219;-79
2023/01/15 00:55:56;;;;;;;3.38;3.08;;;17.60;53.00;;;;;;5068606;28;45269;-79
2023/01/15 00:58:24;;;;;;;3.05;2.75;;;17.60;53.00;;;;;;5068118;28;46599;-79
2023/01/15 01:00:54;;;;;;;3.47;2.88;;;17.60;53.10;;;;;;5068200;28;45244;-79
2023/01/15 01:03:21;;;;;;;3.05;2.75;;;17.60;53.10;;;;;;5068066;28;45205;-78
2023/01/15 01:05:48;;;;;;;3.28;2.78;;;17.60;53.10;;;;;;5068541;27;45439;-79
2023/01/15 01:08:15;;;;;;;3.03;2.72;;;17.60;53.10;;;;;;5068027;28;45264;-79
2023/01/15 01:10:42;;;;;;;3.72;2.85;;;17.60;53.10;;;;;;5068284;28;45106;-79
2023/01/15 01:13:09;;;;;;;3.72;2.97;;;17.60;53.10;;;;;;5067993;27;45230;-79
2023/01/15 01:15:37;;;;;;;3.22;2.80;;;17.60;53.10;;;;;;5068128;28;45166;-81
2023/01/15 01:18:04;;;;;;;2.95;2.53;;;17.60;53.10;;;;;;5068052;28;45257;-78
2023/01/15 01:20:31;;;;;;;2.95;2.65;;;17.60;53.10;;;;;;5067640;28;45281;-80
2023/01/15 01:22:58;;;;;;;3.08;2.78;;;17.60;53.10;;;;;;5067540;28;45150;-79
2023/01/15 01:25:25;;;;;;;2.95;2.65;;;17.60;53.10;;;;;;5065555;28;45344;-80
2023/01/15 01:27:51;;;;;;;3.00;2.70;;;17.60;53.10;;;;;;5064809;28;45407;-78
2023/01/15 01:30:18;;;;;;;2.50;2.30;;;17.60;53.10;;;;;;5064343;28;45279;-79
2023/01/15 01:32:47;;;;;;;2.95;2.65;;;17.60;53.20;;;;;;5065186;28;45280;-79
2023/01/15 01:35:14;;;;;;;2.50;2.30;;;17.60;53.10;;;;;;5067910;28;45411;-80
2023/01/15 01:37:41;;;;;;;3.00;2.53;;;17.60;53.20;;;;;;5067361;28;45281;-78
2023/01/15 01:40:09;;;;;;;2.58;2.38;;;17.60;53.20;;;;;;5067659;27;45317;-79
2023/01/15 01:42:36;;;;;;;2.67;2.20;;;17.60;53.20;;;;;;5065011;28;45333;-79
2023/01/15 01:45:08;;;;;;;2.30;2.10;;;17.60;53.20;;;;;;5067976;28;45185;-79
2023/01/15 01:47:35;;;;;;;2.42;2.22;;;17.60;53.20;;;;;;5065855;28;45443;-79
2023/01/15 01:50:07;;;;;;;2.70;2.20;;;17.60;53.20;;;;;;5067596;28;45215;-79
2023/01/15 01:52:37;;;;;;;2.63;2.30;;;17.60;53.10;;;;;;5067632;28;45295;-80
2023/01/15 01:55:05;;;;;;;2.42;2.05;;;17.60;53.20;;;;;;5067595;28;45364;-79
2023/01/15 01:57:35;;;;;;;3.00;2.22;;;17.60;53.20;;;;;;5067261;28;45454;-80
2023/01/15 02:00:04;;;;;;;2.42;2.15;;;17.60;53.20;;;;;;5067687;28;45323;-79
2023/01/15 02:02:30;;;;;;;2.20;2.00;;;17.60;53.20;;;;;;5067523;28;45191;-80
2023/01/15 02:04:57;;;;;;;2.17;1.98;;;17.60;53.20;;;;;;5067675;28;45509;-80
2023/01/15 02:07:26;;;;;;;2.30;2.10;;;17.60;53.20;;;;;;5067132;28;45566;-80
2023/01/15 02:09:53;;;;;;;2.30;2.10;;;17.60;53.20;;;;;;5067492;28;45210;-80
2023/01/15 02:12:22;;;;;;;2.28;1.90;;;17.60;53.20;;;;;;5067391;28;45336;-80
2023/01/15 02:14:51;;;;;;;2.60;1.90;;;17.60;53.30;;;;;;5067706;28;45328;-80
2023/01/15 02:17:20;;;;;;;2.08;1.90;;;17.60;53.30;;;;;;5067601;28;47565;-79
2023/01/15 02:19:51;;;;;;;2.88;1.95;;;17.60;53.80;;;;;;5066995;28;45670;-79
2023/01/15 02:22:23;;;;;;;2.13;1.80;;;17.60;53.20;;;;;;5066785;28;45256;-80
2023/01/15 02:24:56;;;;;;;1.80;1.70;;;17.60;53.20;;;;;;5067039;28;45326;-79
2023/01/15 02:27:24;;;;;;;2.30;1.80;;;17.60;53.20;;;;;;5067402;28;46448;-79
2023/01/15 02:29:56;;;;;;;1.95;1.70;;;17.60;53.20;;;;;;5067593;28;45320;-79
2023/01/15 02:32:30;;;;;;;2.45;2.08;;;17.60;53.30;;;;;;5067199;28;45404;-80
2023/01/15 02:35:00;;;;;;;1.85;1.70;;;17.60;53.30;;;;;;5067755;28;45428;-79
2023/01/15 02:37:28;;;;;;;1.85;1.73;;;17.60;53.30;;;;;;5067042;28;46324;-79
2023/01/15 02:39:55;;;;;;;1.83;1.73;;;17.60;53.30;;;;;;5067350;28;45193;-79
2023/01/15 02:42:24;;;;;;;1.98;1.77;;;17.60;53.30;;;;;;5067600;28;45142;-78
2023/01/15 02:44:52;;;;;;;2.13;1.80;;;17.60;53.30;;;;;;5067773;28;45352;-78
2023/01/15 02:47:19;;;;;;;2.20;1.90;;;17.60;53.20;;;;;;5067499;28;45504;-78
2023/01/15 02:49:46;;;;;;;1.70;1.60;;;17.60;53.30;;;;;;5067951;28;45277;-78
2023/01/15 02:52:15;;;;;;;1.75;1.65;;;17.60;53.30;;;;;;5067623;28;45391;-79
2023/01/15 02:54:43;;;;;;;1.70;1.60;;;17.60;53.30;;;;;;5067887;28;45398;-79
2023/01/15 02:57:10;;;;;;;1.90;1.48;;;17.60;53.30;;;;;;5067364;28;46660;-78
2023/01/15 02:59:39;;;;;;;1.67;1.58;;;17.60;53.40;;;;;;5067558;28;45126;-78
2023/01/15 03:02:08;;;;;;;1.60;1.50;;;17.60;53.40;;;;;;5067332;28;45260;-78
2023/01/15 03:04:37;;;;;;;1.77;1.60;;;17.60;53.30;;;;;;5067421;28;45479;-78
2023/01/15 03:07:07;;;;;;;1.55;1.40;;;17.60;53.40;;;;;;5066885;28;45539;-78
2023/01/15 03:09:33;;;;;;;1.63;1.52;;;17.60;53.40;;;;;;5067932;28;45222;-78
2023/01/15 03:12:04;;;;;;;1.60;1.50;;;17.60;53.40;;;;;;5071110;28;45204;-79
2023/01/15 03:14:32;;;;;;;1.58;1.48;;;17.60;53.40;;;;;;5071311;28;45249;-79
2023/01/15 03:17:02;;;;;;;1.60;1.50;;;17.60;54.00;;;;;;5070081;27;46252;-79
2023/01/15 03:19:31;;;;;;;2.42;1.70;;;17.60;53.40;;;;;;5069967;28;45354;-79
2023/01/15 03:21:59;;;;;;;1.50;1.40;;;17.60;53.40;;;;;;5071157;28;45329;-79
2023/01/15 03:24:30;;;;;;;1.58;1.48;;;17.60;53.40;;;;;;5071134;28;45165;-79
2023/01/15 03:26:57;;;;;;;2.03;1.50;;;17.60;53.50;;;;;;5070709;28;45445;-78
2023/01/15 03:29:24;;;;;;;1.70;1.33;;;17.60;53.40;;;;;;5070371;28;45209;-79
2023/01/15 03:31:51;;;;;;;1.35;1.20;;;17.60;53.40;;;;;;5070816;28;45119;-78
2023/01/15 03:34:20;;;;;;;1.65;1.50;;;17.60;53.40;;;;;;5071083;28;45404;-79
2023/01/15 03:36:47;;;;;;;1.48;1.38;;;17.60;53.50;;;;;;5068069;28;45653;-79
2023/01/15 03:39:13;;;;;;;1.40;1.30;;;17.60;53.40;;;;;;5070091;28;46112;-79
2023/01/15 03:41:46;;;;;;;1.30;1.20;;;17.60;53.50;;;;;;5071237;28;45186;-78
2023/01/15 03:44:18;;;;;;;1.40;1.30;;;17.60;53.50;;;;;;5071211;28;45346;-78
2023/01/15 03:47:07;;;;;;;1.38;1.27;;;17.60;53.50;;;;;;5069869;28;46448;-79
2023/01/15 03:49:40;;;;;;;1.52;1.42;;;17.60;53.50;;;;;;5070385;28;45292;-78
2023/01/15 03:52:11;;;;;;;1.20;1.20;;;17.60;53.50;;;;;;5070248;28;45331;-79
2023/01/15 03:54:42;;;;;;;1.38;1.27;;;17.60;54.10;;;;;;5070114;28;45419;-79
2023/01/15 03:57:13;;;;;;;1.60;1.40;;;17.60;53.50;;;;;;5069372;28;45460;-79
2023/01/15 03:59:43;;;;;;;1.27;1.17;;;17.60;53.50;;;;;;5070215;28;45311;-79
2023/01/15 04:02:10;;;;;;;1.45;1.20;;;17.60;53.50;;;;;;5070759;28;45265;-79
2023/01/15 04:04:38;;;;;;;1.00;1.00;;;17.60;53.50;;;;;;5070686;28;45423;-78
2023/01/15 04:07:05;;;;;;;1.33;1.23;;;17.60;53.70;;;;;;5070286;28;45338;-78
2023/01/15 04:09:32;;;;;;;1.45;1.35;;;17.60;53.60;;;;;;5069879;28;45367;-79
2023/01/15 04:11:59;;;;;;;1.10;1.10;;;17.60;53.50;;;;;;5069615;28;45138;-79
2023/01/15 04:14:26;;;;;;;1.30;1.20;;;17.60;53.60;;;;;;5069851;28;45208;-79
2023/01/15 04:16:53;;;;;;;1.15;1.05;;;17.60;53.50;;;;;;5068925;28;45257;-78
2023/01/15 04:19:20;;;;;;;1.20;1.10;;;17.60;53.50;;;;;;5068545;28;45329;-79
2023/01/15 04:21:49;;;;;;;1.13;1.02;;;17.60;53.50;;;;;;5065370;28;45335;-79
2023/01/15 04:24:16;;;;;;;1.70;0.90;;;17.60;53.50;;;;;;5068459;28;45155;-79
2023/01/15 04:26:43;;;;;;;1.00;1.00;;;17.60;53.50;;;;;;5069488;27;45876;-79
2023/01/15 04:29:10;;;;;;;1.00;1.00;;;17.60;53.50;;;;;;5069398;28;45419;-79
2023/01/15 04:31:36;;;;;;;0.85;0.85;;;17.60;53.60;;;;;;5069384;28;45328;-79
2023/01/15 04:34:03;;;;;;;1.00;1.00;;;17.60;53.60;;;;;;5069447;28;45419;-79
2023/01/15 04:36:34;;;;;;;1.00;0.90;;;17.60;53.50;;;;;;5069052;28;46926;-79
2023/01/15 04:39:02;;;;;;;0.90;0.90;;;17.60;53.50;;;;;;5069336;28;45305;-79
2023/01/15 04:44:14;;;;;;;1.17;1.08;;;17.60;53.60;;;;;;5069840;28;45214;-78
2023/01/15 04:46:42;;;;;;;0.95;0.95;;;17.60;53.60;;;;;;5069031;28;48731;-79
2023/01/15 04:49:10;;;;;;;1.15;1.05;;;17.60;53.60;;;;;;5069071;28;45906;-78
2023/01/15 04:51:38;;;;;;;1.00;0.90;;;17.60;53.60;;;;;;5069963;28;45359;-78
2023/01/15 04:54:06;;;;;;;0.93;0.93;;;17.60;53.60;;;;;;5069654;28;45496;-78
2023/01/15 04:56:37;;;;;;;1.10;1.00;;;17.60;53.60;;;;;;5069903;28;45159;-79
2023/01/15 04:59:04;;;;;;;0.90;0.90;;;17.60;53.60;;;;;;5067118;28;45315;-79
2023/01/15 05:01:33;;;;;;;0.80;0.80;;;17.60;53.70;;;;;;5071346;28;45220;-79
2023/01/15 05:04:00;;;;;;;0.70;0.70;;;17.60;53.60;;;;;;5072394;28;45360;-78
2023/01/15 05:06:28;;;;;;;0.90;0.90;;;17.60;53.70;;;;;;5071315;28;45253;-78
2023/01/15 05:08:54;;;;;;;0.70;0.70;;;17.60;53.70;;;;;;5071046;28;45212;-78
2023/01/15 05:11:23;;;;;;;0.70;0.70;;;17.60;53.70;;;;;;5071161;28;45204;-78
2023/01/15 05:13:49;;;;;;;0.70;0.70;;;17.60;53.70;;;;;;5071345;28;45332;-78
2023/01/15 05:16:17;;;;;;;1.23;0.93;;;17.60;53.70;;;;;;5070569;28;45617;-78
2023/01/15 05:18:45;;;;;;;0.80;0.80;;;17.60;53.70;;;;;;5071200;28;45232;-78
2023/01/15 05:21:17;;;;;;;0.82;0.70;;;17.60;53.70;;;;;;5071317;28;45332;-78
2023/01/15 05:23:44;;;;;;;0.75;0.75;;;17.60;53.70;;;;;;5071030;28;45506;-78
2023/01/15 05:26:11;;;;;;;0.80;0.80;;;17.60;53.70;;;;;;5070840;28;45277;-78
2023/01/15 05:28:40;;;;;;;0.70;0.70;;;17.60;53.70;;;;;;5068617;28;45253;-78
2023/01/15 05:31:08;;;;;;;0.80;0.80;;;17.60;53.80;;;;;;5071082;28;45486;-78
2023/01/15 05:33:35;;;;;;;0.80;0.80;;;17.60;53.80;;;;;;5070155;28;45479;-79
2023/01/15 05:36:03;;;;;;;0.80;0.80;;;17.60;53.80;;;;;;5069488;28;45229;-78
2023/01/15 05:38:30;;;;;;;0.93;0.90;;;17.60;53.90;;;;;;5069512;28;45420;-78
2023/01/15 05:40:57;;;;;;;0.70;0.70;;;17.60;53.80;;;;;;5070839;28;45295;-79
2023/01/15 05:43:24;;;;;;;0.70;0.60;;;17.60;53.80;;;;;;5067791;28;45422;-78
2023/01/15 05:45:52;;;;;;;0.50;0.50;;;17.60;53.80;;;;;;5070472;28;46848;-78
2023/01/15 05:48:19;;;;;;;0.70;0.70;;;17.60;53.80;;;;;;5068155;28;45220;-79
2023/01/15 05:50:46;;;;;;;0.70;0.70;;;17.60;53.80;;;;;;5070846;28;45344;-78
2023/01/15 05:53:13;;;;;;;0.52;0.52;;;17.60;53.80;;;;;;5071632;28;45480;-78
2023/01/15 05:55:43;;;;;;;1.00;0.80;;;17.60;53.80;;;;;;5071861;28;45456;-78
2023/01/15 05:58:09;;;;;;;0.60;0.60;;;17.60;53.80;;;;;;5071704;28;45255;-78
2023/01/15 06:00:36;;;;;;;0.70;0.70;;;17.60;53.80;;;;;;5071424;28;45284;-78
2023/01/15 06:03:04;;;;;;;0.60;0.60;;;17.60;53.80;;;;;;5071483;28;45400;-78
2023/01/15 06:05:31;;;;;;;0.65;0.65;;;17.60;53.80;;;;;;5070580;28;45451;-78
2023/01/15 06:07:58;;;;;;;0.50;0.50;;;17.60;53.80;;;;;;5070193;28;45279;-78
2023/01/15 06:10:25;;;;;;;1.55;0.80;;;17.60;53.80;;;;;;5070616;28;45150;-78
2023/01/15 06:12:52;;;;;;;0.50;0.50;;;17.60;53.80;;;;;;5070555;28;45428;-79
2023/01/15 06:15:19;;;;;;;0.70;0.70;;;17.60;53.80;;;;;;5070099;28;45455;-78
2023/01/15 06:17:49;;;;;;;0.60;0.60;;;17.60;53.90;;;;;;5070196;28;45201;-78
2023/01/15 06:20:17;;;;;;;0.60;0.60;;;17.60;53.80;;;;;;5070345;28;45265;-78
2023/01/15 06:22:44;;;;;;;0.70;0.70;;;17.60;53.90;;;;;;5068828;28;45415;-78
2023/01/15 06:25:11;;;;;;;0.70;0.70;;;17.60;53.90;;;;;;5068527;28;46604;-78
2023/01/15 06:27:38;;;;;;;0.50;0.50;;;17.60;53.90;;;;;;5065498;28;45177;-79
2023/01/15 06:30:06;;;;;;;0.60;0.60;;;17.60;53.90;;;;;;5068506;28;45244;-78
2023/01/15 06:32:33;;;;;;;0.70;0.70;;;17.60;53.90;;;;;;5068214;28;45427;-79
2023/01/15 06:35:00;;;;;;;0.70;0.70;;;17.60;53.90;;;;;;5066922;28;45724;-79
2023/01/15 06:37:28;;;;;;;0.60;0.60;;;17.60;53.90;;;;;;5066943;28;45304;-79
2023/01/15 06:39:55;;;;;;;1.17;0.73;;;17.60;53.90;;;;;;5066965;28;45266;-79
2023/01/15 06:47:53;;;;;;;0.60;0.60;;;17.60;53.90;;;;;;5063966;28;45390;-79
2023/01/15 06:50:19;;;;;;;0.55;0.55;;;17.60;54.50;;;;;;5064063;28;45397;-79
2023/01/15 06:52:48;;;;;;;0.60;0.60;;;17.60;53.90;;;;;;5066330;28;45223;-78
2023/01/15 06:55:15;;;;;;;0.60;0.45;;;17.60;53.90;;;;;;5065923;28;46364;-79
2023/01/15 06:57:41;;;;;;;0.60;0.60;;;17.60;53.90;;;;;;5066595;28;45313;-79
2023/01/15 07:00:09;;;;;;;0.60;0.60;;;17.60;53.90;;;;;;5066514;28;45310;-79
2023/01/15 07:02:37;;;;;;;0.60;0.60;;;17.60;53.90;;;;;;5067018;28;45122;-79
2023/01/15 07:05:04;;;;;;;0.70;0.70;;;17.60;53.90;;;;;;5066206;28;45209;-79
2023/01/15 07:07:31;;;;;;;0.50;0.50;;;17.60;54.00;;;;;;5066271;28;45414;-79
2023/01/15 07:10:00;;;;;;;0.47;0.47;;;17.50;54.00;;;;;;5066450;28;45319;-78
2023/01/15 07:12:26;;;;;;;0.50;0.50;;;17.60;54.00;;;;;;5066682;28;45226;-78
2023/01/15 07:14:53;;;;;;;0.63;0.63;;;17.60;54.00;;;;;;5066166;28;46700;-78
2023/01/15 07:17:20;;;;;;;0.68;0.40;;;17.60;54.00;;;;;;5066347;28;45502;-78
2023/01/15 07:19:47;;;;;;;0.40;0.40;;;17.50;54.00;;;;;;5066332;28;45383;-78
2023/01/15 07:22:14;;;;;;;0.60;0.60;;;17.50;54.00;;;;;;5063934;28;45333;-78
2023/01/15 07:24:41;;;;;;;0.40;0.40;;;17.50;53.90;;;;;;5065815;28;46741;-78
2023/01/15 07:27:10;;;;;;;0.40;0.40;;;17.60;54.00;;;;;;5066027;28;45242;-78
2023/01/15 07:29:37;;;;;;;0.57;0.57;;;17.50;53.90;;;;;;5066325;28;45330;-78
2023/01/15 07:32:04;;;;;;;0.40;0.40;;;17.60;54.00;;;;;;5066240;27;45653;-78
2023/01/15 07:34:31;;;;;;;0.50;0.43;;;17.50;53.90;;;;;;5065801;28;46423;-77
2023/01/15 07:36:58;;;;;;;0.30;0.30;;;17.50;54.00;;;;;;5065799;28;45133;-76
2023/01/15 07:39:25;;;;;;;0.98;0.40;;;17.50;54.00;;;;;;5065380;28;45281;-78
2023/01/15 07:50:09;;;;;;;0.40;0.40;;;17.50;54.00;;;;;;5063527;28;45286;-78
2023/01/15 07:52:36;;;;;;;0.32;0.32;;;17.50;54.10;;;;;;5066386;28;45234;-78
2023/01/15 07:55:03;;;;;;;0.32;0.32;;;17.50;54.00;;;;;;5065020;28;45496;-78
2023/01/15 07:57:30;;;;;;;0.40;0.40;;;17.50;54.10;;;;;;5069324;27;45208;-78
2023/01/15 07:59:59;;;;;;;0.35;0.35;;;17.50;54.10;;;;;;5069452;28;45301;-78
2023/01/15 08:02:26;;;;;;;0.50;0.50;;;17.50;54.10;;;;;;5069174;27;45700;-78
2023/01/15 08:04:53;;;;;;;0.43;0.43;;;17.50;54.10;;;;;;5069143;28;46888;-79
2023/01/15 08:07:19;;;;;;;0.40;0.40;;;17.50;54.10;;;;;;5069055;28;45229;-78
2023/01/15 08:09:46;;;;;;;0.32;0.32;;;17.50;54.10;;;;;;5069439;28;45376;-78
2023/01/15 08:15:15;;;;;;;0.30;0.30;;;17.50;54.10;;;;;;5066428;28;45268;-78
2023/01/15 08:17:42;;;;;;;0.30;0.30;;;17.50;54.10;;;;;;5069299;28;45238;-78
2023/01/15 08:20:12;;;;;;;0.20;0.20;;;17.50;54.10;;;;;;5069252;28;45215;-78
2023/01/15 08:22:39;;;;;;;0.70;0.40;;;17.40;54.10;;;;;;5068852;28;45207;-78
2023/01/15 08:25:08;;;;;;;0.40;0.40;;;17.40;54.70;;;;;;5069016;28;45409;-78
2023/01/15 08:27:35;;;;;;;0.25;0.25;;;17.40;54.10;;;;;;5068708;28;45384;-78
2023/01/15 08:30:04;;;;;;;0.40;0.40;;;17.40;54.10;;;;;;5066506;28;45211;-78
2023/01/15 08:32:31;;;;;;;0.38;0.38;;;17.40;54.10;;;;;;5068969;28;45616;-78
2023/01/15 08:34:58;;;;;;;0.50;0.50;;;17.40;54.10;;;;;;5068598;28;46369;-78
2023/01/15 08:37:25;;;;;;;0.50;0.50;;;17.40;54.10;;;;;;5068361;28;45332;-77
2023/01/15 08:39:52;;;;;;;0.32;0.32;;;17.40;54.10;;;;;;5068572;28;45204;-78
2023/01/15 08:42:19;;;;;;;0.47;0.40;;;17.40;54.10;;;;;;5069016;28;45178;-78
2023/01/15 08:44:46;;;;;;;0.30;0.30;;;17.40;54.10;;;;;;5068357;28;45225;-78
2023/01/15 08:47:14;;;;;;;0.28;0.28;;;17.40;54.10;;;;;;5068439;28;45291;-77
2023/01/15 08:49:41;;;;;;;0.38;0.38;;;17.40;54.10;;;;;;5067734;28;45299;-78
2023/01/15 08:52:08;;;;;;;0.50;0.50;;;17.40;54.10;;;;;;5068717;28;45202;-78
2023/01/15 08:54:35;;;;;;;0.60;0.40;;;17.40;54.20;;;;;;5068356;28;45267;-78
2023/01/15 08:57:02;;;;;;;0.40;0.40;;;17.40;54.30;;;;;;5068174;28;45351;-78
2023/01/15 08:59:29;;;;;;;0.30;0.30;;;17.40;54.10;;;;;;5068056;28;45489;-79
2023/01/15 09:01:56;;;;;;;0.28;0.28;;;17.40;54.10;;;;;;5068394;28;45300;-78
2023/01/15 09:04:24;;;;;;;0.50;0.50;;;17.40;54.20;;;;;;5068142;28;46933;-78
2023/01/15 09:06:51;;;;;;;0.50;0.50;;;17.40;54.20;;;;;;5067840;28;45256;-79
2023/01/15 09:09:18;;;;;;;0.30;0.30;;;17.40;54.20;;;;;;5067593;28;45339;-78
2023/01/15 09:11:45;;;;;;;0.30;0.30;;;17.40;54.20;;;;;;5068109;28;45284;-78
2023/01/15 09:14:13;;;;;;;0.35;0.35;;;17.30;54.20;;;;;;5068127;28;48823;-78
2023/01/15 09:16:40;;;;;;;0.22;0.22;;;17.30;54.20;;;;;;5067827;28;45200;-78
2023/01/15 09:19:07;;;;;;;0.30;0.30;;;17.30;54.20;;;;;;5068206;28;45336;-79
2023/01/15 09:21:36;;;;;;;0.30;0.30;;;17.30;54.10;;;;;;5065867;28;45402;-80
2023/01/15 09:24:03;;;;;;;0.40;0.40;;;17.30;54.20;;;;;;5068119;28;45475;-78
2023/01/15 09:26:31;;;;;;;0.20;0.20;;;17.40;54.20;;;;;;5068053;28;45276;-78
2023/01/15 09:28:58;;;;;;;0.63;0.50;;;17.30;54.20;;;;;;5068127;28;45437;-79
2023/01/15 09:31:25;;;;;;;0.28;0.28;;;17.30;54.20;;;;;;5069170;28;45337;-78
2023/01/15 09:33:52;;;;;;;0.30;0.30;;;17.30;54.20;;;;;;5086066;27;45375;-78
2023/01/15 09:36:19;;;;;;;0.40;0.40;;;17.30;54.20;;;;;;5088205;27;45201;-78
2023/01/15 09:38:49;;;;;;;0.95;0.17;;;17.30;54.20;;;;;;5086293;28;45527;-77
2023/01/15 09:43:59;;;;;;;0.85;0.30;;;17.30;54.30;;;;;;5077119;27;46425;-76
2023/01/15 09:46:29;;;;;;;0.60;0.30;;;17.20;54.30;;;;;;5065510;28;45304;-78
2023/01/15 09:49:03;;;;;;;0.22;0.22;;;17.30;54.30;;;;;;5085528;28;45284;-77
2023/01/15 09:51:32;;;;;;;0.30;0.30;;;17.30;54.30;;;;;;5084357;27;45535;-77
2023/01/15 09:54:11;;;;;;;0.30;0.30;;;17.20;54.30;;;;;;5081567;28;44982;-77
2023/01/15 09:56:38;;;;;;;1.02;0.40;;;17.30;54.30;;;;;;5087046;28;45706;-77
2023/01/15 09:59:15;;;;;;;0.25;0.25;;;17.20;54.30;;;;;;5085721;28;45161;-77
2023/01/15 10:01:42;;;;;;;0.30;0.30;;;17.20;54.30;;;;;;5085699;27;45262;-77
2023/01/15 10:04:13;;;;;;;0.43;0.43;;;17.20;54.30;;;;;;5086065;28;45315;-76
2023/01/15 10:06:43;;;;;;;0.30;0.30;;;17.20;54.30;;;;;;5085577;27;45416;-76
2023/01/15 10:09:13;;;;;;;0.82;0.40;;;17.20;54.30;;;;;;5085298;28;45305;-77
2023/01/15 10:14:38;;;;;;;0.50;0.50;;;17.20;54.30;;;;;;5087668;28;45398;-77
2023/01/15 10:17:09;;;;;;;0.30;0.30;;;17.10;54.20;;;;;;5085253;28;46110;-77
2023/01/15 10:19:36;;;;;;;0.40;0.40;;;17.20;54.30;;;;;;5085195;27;45200;-77
2023/01/15 10:22:05;;;;;;;0.32;0.32;;;17.20;54.40;;;;;;5087437;28;45402;-75
2023/01/15 10:24:37;;;;;;;1.15;0.60;;;17.10;54.30;;;;;;5086362;27;46992;-78
2023/01/15 10:27:06;;;;;;;0.60;0.60;;;17.10;54.30;;;;;;5083155;28;45357;-76
2023/01/15 10:29:36;;;;;;;0.30;0.30;;;17.10;54.30;;;;;;5087206;27;45224;-76
2023/01/15 10:32:04;;;;;;;0.40;0.40;;;17.10;54.30;;;;;;5084512;27;46950;-78
2023/01/15 10:34:56;;;;;;;0.68;0.65;;;17.10;54.30;;;;;;5085945;27;46633;-75
2023/01/15 10:37:25;;;;;;;0.45;0.45;;;17.10;54.30;;;;;;5086872;27;45291;-78
2023/01/15 10:40:04;;;;;;;0.50;0.50;;;17.10;54.30;;;;;;5086296;28;45216;-77
2023/01/15 10:42:39;;;;;;;0.98;0.60;;;17.10;54.30;;;;;;5080504;28;45182;-75
2023/01/15 10:45:10;;;;;;;1.55;0.70;;;17.10;54.40;;;;;;5085375;27;46642;-77
2023/01/15 10:47:37;;;;;;;0.82;0.68;;;17.00;54.30;;;;;;5084721;28;45367;-76
2023/01/15 10:50:13;;;;;;;2.67;0.90;;;17.00;54.30;;;;;;5083570;28;45182;-79
2023/01/15 10:52:40;;;;;;;0.65;0.65;;;17.00;54.30;;;;;;5084468;27;45496;-75
2023/01/15 10:55:18;;;;;;;1.98;0.73;;;17.00;54.40;;;;;;5085701;27;46617;-79
2023/01/15 10:57:49;;;;;;;0.95;0.85;;;17.00;54.40;;;;;;5085780;28;45328;-80
2023/01/15 11:00:16;;;;;;;1.33;0.70;;;17.00;54.40;;;;;;5082632;28;45542;-79
2023/01/15 11:02:44;;;;;;;1.00;0.90;;;17.00;54.40;;;;;;5083599;28;45407;-79
2023/01/15 11:05:14;;;;;;;0.90;0.88;;;17.00;54.40;;;;;;5085751;27;45809;-75
2023/01/15 11:07:41;;;;;;;2.30;1.05;;;17.00;54.90;;;;;;5086044;27;45296;-78
2023/01/15 11:10:12;;;;;;;1.98;1.00;;;17.00;55.60;;;;;;5086969;28;45330;-77
2023/01/15 11:20:57;;;;;;;1.08;0.80;;;17.30;55.90;;;;;;5097008;27;45295;-79
2023/01/15 11:23:24;;;;;;;1.67;0.75;;;17.30;55.30;;;;;;5076998;27;45485;-79
2023/01/15 11:25:54;;;;;;;3.00;1.10;;;17.40;55.10;;;;;;5080048;28;45447;-78
2023/01/15 11:28:31;;;;;;;3.00;1.08;;;17.40;55.10;;;;;;5079122;27;45441;-79
2023/01/15 11:30:59;;;;;;;1.35;1.20;;;17.30;55.00;;;;;;5085492;27;45311;-78
2023/01/15 11:33:27;;;;;;;1.15;0.93;;;17.30;55.00;;;;;;5094275;27;45532;-77
2023/01/15 11:35:57;;;;;;;1.75;1.35;;;17.30;55.10;;;;;;5109699;27;45548;-76
2023/01/15 11:38:24;;;;;;;3.25;1.13;;;17.30;55.10;;;;;;5095718;27;45345;-79
2023/01/15 11:40:58;;;;;;;3.22;1.13;;;17.30;55.20;;;;;;5088337;27;45553;-80
2023/01/15 11:52:01;;;;;;;4.68;1.10;;;17.20;55.20;;;;;;5088169;28;45414;-80
2023/01/15 11:54:29;;;;;;;1.60;1.02;;;17.20;55.30;;;;;;5088603;27;45119;-78
2023/01/15 11:56:57;;;;;;;3.33;0.77;;;17.20;55.30;;;;;;5087456;27;46223;-81
2023/01/15 11:59:24;;;;;;;8.23;1.10;;;17.20;55.30;;;;;;5088852;28;45290;-80
2023/01/15 12:01:58;;;;;;;1.95;1.20;;;17.20;55.40;;;;;;5086813;28;45460;-79
2023/01/15 12:04:27;;;;;;;2.65;1.05;;;17.20;55.40;;;;;;5090519;28;45486;-78
2023/01/15 12:06:54;;;;;;;1.30;1.00;;;17.20;55.30;;;;;;5084551;28;45441;-78
2023/01/15 12:09:25;;;;;;;1.75;1.05;;;17.20;55.30;;;;;;5091736;27;45209;-82
2023/01/15 12:11:59;;;;;;;2.80;1.00;;;17.20;55.40;;;;;;5087584;27;45536;-81
2023/01/15 12:14:43;;;;;;;2.58;1.05;;;17.30;55.30;;;;;;5091411;27;45240;-81
2023/01/15 12:17:27;;;;;;;4.13;0.90;;;17.20;55.20;;;;;;5088322;27;45486;-83
2023/01/15 12:19:56;;;;;;;3.03;1.00;;;17.30;55.10;;;;;;5086229;27;45346;-80
2023/01/15 12:22:32;;;;;;;2.53;1.00;;;17.30;55.00;;;;;;5089786;27;45149;-80
2023/01/15 12:25:07;;;;;;;3.22;0.80;;;17.30;55.00;;;;;;5089168;28;45516;-80
2023/01/15 12:28:00;;;;;;;2.53;0.98;;;17.20;54.90;;;;;;5086546;28;46675;-81
2023/01/15 12:30:33;;;;;;;0.98;0.88;;;17.20;55.00;;;;;;5074812;27;45321;-80
2023/01/15 12:33:05;;;;;;;2.15;0.88;;;17.20;55.00;;;;;;5088734;28;45410;-80
2023/01/15 12:35:33;;;;;;;3.25;0.90;;;17.20;54.90;;;;;;5086544;28;45316;-79
2023/01/15 12:38:03;;;;;;;2.67;0.93;;;17.10;54.90;;;;;;5090184;27;46711;-82
2023/01/15 12:40:33;;;;;;;1.00;0.88;;;17.10;54.90;;;;;;5077893;27;45569;-81
2023/01/15 12:45:47;;;;;;;4.85;1.15;;;17.10;54.90;;;;;;5087313;28;45390;-79
2023/01/15 12:48:16;;;;;;;1.40;1.00;;;17.10;54.90;;;;;;5085900;28;45552;-80
2023/01/15 12:50:44;;;;;;;1.40;0.80;;;17.10;54.90;;;;;;5087181;27;45348;-80
2023/01/15 12:53:13;;;;;;;3.65;0.93;;;17.10;54.90;;;;;;5108473;27;45512;-79
2023/01/15 12:55:41;;;;;;;4.32;0.98;;;17.00;54.80;;;;;;5093052;27;45523;-80
2023/01/15 12:58:17;;;;;;;2.03;0.80;;;17.00;54.80;;;;;;5095835;27;46690;-80
2023/01/15 13:00:44;;;;;;;2.50;0.98;;;17.00;54.80;;;;;;5083722;27;45344;-79
2023/01/15 13:03:18;;;;;;;3.35;1.00;;;17.00;54.80;;;;;;5085953;28;45407;-79
2023/01/15 13:05:48;;;;;;;2.80;0.90;;;17.00;54.80;;;;;;5086151;27;45595;-80
2023/01/15 13:08:22;;;;;;;5.90;0.95;;;17.00;54.80;;;;;;5085915;27;45328;-81
2023/01/15 13:10:49;;;;;;;1.20;0.82;;;17.00;54.80;;;;;;5063209;28;45415;-79
2023/01/15 13:13:19;;;;;;;1.13;0.70;;;17.00;54.70;;;;;;5070853;27;45547;-79
2023/01/15 13:16:11;;;;;;;1.05;0.80;;;17.00;54.70;;;;;;5087501;27;45481;-79
2023/01/15 13:18:46;;;;;;;1.05;0.70;;;17.00;54.60;;;;;;5096217;27;46421;-79
2023/01/15 13:21:14;;;;;;;1.75;0.80;;;17.00;54.60;;;;;;5090436;27;45603;-80
2023/01/15 13:23:49;;;;;;;1.05;0.80;;;17.00;54.70;;;;;;5081157;27;45642;-80
2023/01/15 13:26:40;;;;;;;1.20;0.95;;;17.00;54.70;;;;;;5094366;27;45547;-78
2023/01/15 13:29:12;;;;;;;0.80;0.63;;;17.00;54.60;;;;;;5098316;27;46731;-80
2023/01/15 13:31:57;;;;;;;1.70;0.70;;;17.00;54.50;;;;;;5083046;27;45200;-81
2023/01/15 13:34:30;;;;;;;0.80;0.80;;;17.00;54.50;;;;;;5092054;27;45360;-78
2023/01/15 13:36:58;;;;;;;3.95;0.90;;;17.00;54.50;;;;;;5080419;27;45392;-78
2023/01/15 13:39:28;;;;;;;1.15;0.60;;;17.00;54.50;;;;;;5084283;27;46192;-78
2023/01/15 13:44:47;;;;;;;1.02;0.93;;;16.90;54.40;;;;;;5080096;28;45542;-73
2023/01/15 13:47:18;;;;;;;2.00;0.68;;;16.90;54.70;;;;;;5080218;28;45385;-79
2023/01/15 13:49:47;;;;;;;3.42;0.70;;;16.90;55.50;;;;;;5080032;28;46542;-76